createdAt,value
2023-02-13T00:00:44.063Z,100887.34
2023-02-13T00:05:48.991Z,100879.31
2023-02-13T00:10:56.168Z,100870.34
2023-02-13T00:16:06.647Z,100879.72
2023-02-13T00:21:13.978Z,100869.31
2023-02-13T00:26:20.288Z,100871.69
2023-02-13T00:31:28.246Z,100863.91
2023-02-13T00:36:37.774Z,100872.28
2023-02-13T00:41:45.936Z,100863.72
2023-02-13T00:46:53.572Z,100864.72
2023-02-13T00:51:58.622Z,100860.00
2023-02-13T00:57:03.530Z,100870.59
2023-02-13T01:02:11.275Z,100864.94
2023-02-13T01:07:20.270Z,100869.19
2023-02-13T01:12:25.219Z,100861.72
2023-02-13T01:17:33.942Z,100870.75
2023-02-13T01:22:39.055Z,100862.09
2023-02-13T01:27:44.942Z,100864.16
2023-02-13T01:32:52.658Z,100853.63
2023-02-13T01:38:08.998Z,100860.47
2023-02-13T01:43:16.633Z,100848.28
2023-02-13T01:48:27.312Z,100845.06
2023-02-13T01:53:36.399Z,100843.00
2023-02-13T01:58:46.779Z,100851.50
2023-02-13T02:04:01.251Z,100856.38
2023-02-13T02:09:19.026Z,100856.22
2023-02-13T02:14:25.645Z,100848.63
2023-02-13T02:19:47.537Z,100844.81
2023-02-13T02:25:25.116Z,100835.81
2023-02-13T02:30:49.337Z,100839.09
2023-02-13T02:36:08.816Z,100843.25
2023-02-13T02:41:44.583Z,100843.66
2023-02-13T02:47:20.050Z,100840.94
2023-02-13T02:52:34.523Z,100842.69
2023-02-13T02:58:03.310Z,100847.19
2023-02-13T03:03:27.026Z,100846.44
2023-02-13T03:08:48.372Z,100846.22
2023-02-13T03:13:53.667Z,100849.44
2023-02-13T03:19:13.963Z,100844.16
2023-02-13T03:24:31.076Z,100847.47
2023-02-13T03:29:59.808Z,100849.38
2023-02-13T03:35:31.282Z,100851.81
2023-02-13T03:41:02.792Z,100851.44
2023-02-13T03:46:10.114Z,100839.09
2023-02-13T03:51:24.120Z,100845.13
2023-02-13T03:56:46.073Z,100854.88
2023-02-13T04:01:57.486Z,100852.31
2023-02-13T04:07:06.820Z,100854.00
2023-02-13T04:12:22.015Z,100855.31
2023-02-13T04:17:38.694Z,100850.19
2023-02-13T04:22:49.569Z,100853.72
2023-02-13T04:27:57.130Z,100848.13
2023-02-13T04:33:03.383Z,100849.59
2023-02-13T04:38:10.724Z,100853.06
2023-02-13T04:43:18.273Z,100843.31
2023-02-13T04:48:25.852Z,100846.72
2023-02-13T04:53:32.105Z,100842.50
2023-02-13T04:58:39.963Z,100842.69
2023-02-13T05:03:45.199Z,100838.97
2023-02-13T05:08:50.217Z,100842.03
2023-02-13T05:14:00.175Z,100846.00
2023-02-13T05:19:07.194Z,100843.44
2023-02-13T05:24:14.694Z,100849.97
2023-02-13T05:29:23.029Z,100844.75
2023-02-13T05:34:29.817Z,100841.59
2023-02-13T05:39:34.849Z,100847.38
2023-02-13T05:44:42.673Z,100847.19
2023-02-13T05:49:47.701Z,100845.50
2023-02-13T05:54:52.868Z,100843.88
2023-02-13T06:00:00.437Z,100842.66
2023-02-13T06:05:08.662Z,100850.84
2023-02-13T06:10:17.072Z,100855.47
2023-02-13T06:15:26.854Z,100856.13
2023-02-13T06:20:32.035Z,100860.19
2023-02-13T06:25:37.529Z,100868.19
2023-02-13T06:30:46.696Z,100873.63
2023-02-13T06:35:53.184Z,100875.53
2023-02-13T06:41:09.406Z,100873.38
2023-02-13T06:46:25.819Z,100887.25
2023-02-13T06:51:30.841Z,100881.72
2023-02-13T06:56:37.492Z,100885.41
2023-02-13T07:01:45.070Z,100899.56
2023-02-13T07:06:54.877Z,100892.44
2023-02-13T07:11:59.872Z,100898.81
2023-02-13T07:17:07.901Z,100911.63
2023-02-13T07:22:12.911Z,100903.53
2023-02-13T07:27:18.688Z,100895.41
2023-02-13T07:32:27.651Z,100895.72
2023-02-13T07:37:36.656Z,100903.78
2023-02-13T07:42:41.872Z,100900.78
2023-02-13T07:48:09.746Z,100901.44
2023-02-13T07:53:15.497Z,100897.91
2023-02-13T07:58:25.064Z,100910.81
2023-02-13T08:03:32.870Z,100908.84
2023-02-13T08:08:39.425Z,100922.44
2023-02-13T08:13:45.401Z,100917.56
2023-02-13T08:18:53.881Z,100917.75
2023-02-13T08:24:01.948Z,100910.56
2023-02-13T08:29:07.796Z,100924.38
2023-02-13T08:34:19.365Z,100931.31
2023-02-13T08:39:24.730Z,100920.38
2023-02-13T08:44:32.501Z,100917.00
2023-02-13T08:49:40.156Z,100917.56
2023-02-13T08:54:47.734Z,100919.75
2023-02-13T08:59:58.480Z,100932.81
2023-02-13T09:05:08.812Z,100937.91
2023-02-13T09:10:18.745Z,100936.44
2023-02-13T09:15:31.168Z,100939.53
2023-02-13T09:20:38.837Z,100943.97
2023-02-13T09:25:45.256Z,100944.44
2023-02-13T09:31:20.740Z,100943.59
2023-02-13T09:36:39.538Z,100944.34
2023-02-13T09:41:50.550Z,100936.88
2023-02-13T09:46:55.910Z,100936.06
2023-02-13T09:52:04.484Z,100953.59
2023-02-13T09:57:19.353Z,100955.25
2023-02-13T10:02:53.278Z,100958.75
2023-02-13T10:08:14.730Z,100967.63
2023-02-13T10:13:32.094Z,100955.16
2023-02-13T10:18:45.945Z,100951.56
2023-02-13T10:24:00.160Z,100949.69
2023-02-13T10:34:57.948Z,100949.66
2023-02-13T10:40:05.617Z,100941.56
2023-02-13T10:45:30.101Z,100928.72
2023-02-13T10:50:46.222Z,100925.19
2023-02-13T10:56:23.284Z,100912.69
2023-02-13T11:01:36.975Z,100897.13
2023-02-13T11:06:46.793Z,100900.72
2023-02-13T11:11:57.962Z,100905.44
2023-02-13T11:17:06.255Z,100901.69
2023-02-13T11:22:18.411Z,100901.75
2023-02-13T11:27:30.843Z,100906.31
2023-02-13T11:32:39.659Z,100900.31
2023-02-13T11:37:44.713Z,100889.31
2023-02-13T11:42:54.289Z,100894.47
2023-02-13T11:47:59.841Z,100897.25
2023-02-13T11:53:09.117Z,100892.25
2023-02-13T11:58:30.979Z,100879.03
2023-02-13T12:03:36.271Z,100886.47
2023-02-13T12:08:50.119Z,100882.03
2023-02-13T12:14:00.423Z,100866.03
2023-02-13T12:19:13.262Z,100865.94
2023-02-13T12:24:34.820Z,100864.09
2023-02-13T12:30:22.668Z,100861.28
2023-02-13T12:35:48.643Z,100855.06
2023-02-13T12:41:11.256Z,100842.66
2023-02-13T12:46:31.380Z,100844.66
2023-02-13T12:51:50.153Z,100843.50
2023-02-13T12:57:36.208Z,100847.25
2023-02-13T13:03:19.055Z,100839.47
2023-02-13T13:08:41.368Z,100832.53
2023-02-13T13:14:03.160Z,100832.53
2023-02-13T13:19:29.132Z,100834.38
2023-02-13T13:24:47.492Z,100836.47
2023-02-13T13:29:58.722Z,100839.09
2023-02-13T13:35:07.193Z,100835.31
2023-02-13T13:40:31.424Z,100839.69
2023-02-13T13:45:48.663Z,100835.19
2023-02-13T13:50:57.462Z,100848.31
2023-02-13T13:56:10.956Z,100850.72
2023-02-13T14:01:32.385Z,100856.84
2023-02-13T14:07:22.889Z,100844.16
2023-02-13T14:12:51.932Z,100844.66
2023-02-13T14:17:58.820Z,100836.31
2023-02-13T14:23:11.612Z,100837.72
2023-02-13T14:28:36.701Z,100830.94
2023-02-13T14:33:42.059Z,100831.91
2023-02-13T14:38:47.091Z,100834.22
2023-02-13T14:43:59.446Z,100815.81
2023-02-13T14:49:11.859Z,100819.59
2023-02-13T14:54:27.667Z,100809.66
2023-02-13T14:59:39.393Z,100806.34
2023-02-13T15:04:47.936Z,100810.63
2023-02-13T15:09:56.703Z,100800.78
2023-02-13T15:15:26.534Z,100803.72
2023-02-13T15:20:37.959Z,100793.91
2023-02-13T15:25:43.712Z,100784.16
2023-02-13T15:31:01.914Z,100781.38
2023-02-13T15:36:09.774Z,100775.78
2023-02-13T15:41:21.803Z,100779.00
2023-02-13T15:46:33.294Z,100799.53
2023-02-13T15:51:38.481Z,100800.94
2023-02-13T15:56:48.762Z,100797.28
2023-02-13T16:01:58.456Z,100794.72
2023-02-13T16:07:04.544Z,100799.94
2023-02-13T16:12:20.741Z,100790.31
2023-02-13T16:17:32.484Z,100790.38
2023-02-13T16:22:45.914Z,100788.38
2023-02-13T16:27:54.834Z,100790.25
2023-02-13T16:33:27.315Z,100797.38
2023-02-13T16:38:36.386Z,100793.06
2023-02-13T16:43:51.821Z,100786.03
2023-02-13T16:49:16.584Z,100790.78
2023-02-13T16:54:32.190Z,100795.81
2023-02-13T16:59:45.827Z,100780.84
2023-02-13T17:04:57.726Z,100786.97
2023-02-13T17:10:05.231Z,100797.66
2023-02-13T17:15:14.805Z,100792.34
2023-02-13T17:20:25.312Z,100798.34
2023-02-13T17:25:35.835Z,100775.75
2023-02-13T17:30:41.861Z,100787.25
2023-02-13T17:35:49.750Z,100778.56
2023-02-13T17:40:55.430Z,100781.19
2023-02-13T17:46:01.468Z,100776.81
2023-02-13T17:51:14.686Z,100780.66
2023-02-13T17:56:19.870Z,100784.84
2023-02-13T18:01:26.184Z,100791.97
2023-02-13T18:06:34.306Z,100791.97
2023-02-13T18:11:43.309Z,100799.53
2023-02-13T18:16:50.855Z,100806.56
2023-02-13T18:21:58.682Z,100794.00
2023-02-13T18:27:03.920Z,100791.00
2023-02-13T18:32:12.211Z,100781.00
2023-02-13T18:37:21.232Z,100776.13
2023-02-13T18:42:26.338Z,100757.69
2023-02-13T18:47:32.042Z,100769.72
2023-02-13T18:52:39.703Z,100762.53
2023-02-13T18:57:46.192Z,100761.50
2023-02-13T19:02:51.318Z,100759.91
2023-02-13T19:08:00.641Z,100756.53
2023-02-13T19:13:07.034Z,100774.88
2023-02-13T19:18:12.272Z,100774.75
2023-02-13T19:23:19.981Z,100792.19
2023-02-13T19:28:25.530Z,100797.88
2023-02-13T19:33:33.308Z,100803.19
2023-02-13T19:38:43.359Z,100802.63
2023-02-13T19:43:51.137Z,100810.09
2023-02-13T19:49:01.177Z,100807.22
2023-02-13T19:54:11.629Z,100809.72
2023-02-13T19:59:17.337Z,100809.28
2023-02-13T20:04:22.871Z,100799.06
2023-02-13T20:09:31.059Z,100790.78
2023-02-13T20:14:36.957Z,100793.50
2023-02-13T20:19:42.446Z,100810.97
2023-02-13T20:24:52.396Z,100803.94
2023-02-13T20:30:06.602Z,100810.94
2023-02-13T20:35:15.764Z,100803.13
2023-02-13T20:40:24.139Z,100812.38
2023-02-13T20:45:29.745Z,100815.97
2023-02-13T20:50:35.210Z,100811.94
2023-02-13T20:55:43.307Z,100813.81
2023-02-13T21:00:48.570Z,100821.03
2023-02-13T21:05:53.583Z,100823.16
2023-02-13T21:11:06.964Z,100813.91
2023-02-13T21:16:16.263Z,100820.38
2023-02-13T21:21:24.426Z,100810.69
2023-02-13T21:26:33.344Z,100812.25
2023-02-13T21:31:45.260Z,100822.59
2023-02-13T21:36:52.985Z,100810.84
2023-02-13T21:42:02.446Z,100826.63
2023-02-13T21:47:09.342Z,100821.53
2023-02-13T21:52:14.722Z,100816.41
2023-02-13T21:57:25.009Z,100814.34
2023-02-13T22:02:32.400Z,100820.59
2023-02-13T22:07:58.927Z,100810.97
2023-02-13T22:13:06.867Z,100816.56
2023-02-13T22:18:11.970Z,100821.53
2023-02-13T22:23:16.867Z,100825.38
2023-02-13T22:28:24.512Z,100834.75
2023-02-13T22:33:30.241Z,100834.19
2023-02-13T22:38:35.640Z,100843.00
2023-02-13T22:43:44.250Z,100848.44
2023-02-13T22:48:52.066Z,100857.69
2023-02-13T22:53:58.470Z,100852.66
2023-02-13T22:59:06.105Z,100862.09
2023-02-13T23:04:12.688Z,100861.06
2023-02-13T23:09:17.955Z,100866.38
2023-02-13T23:14:27.945Z,100864.00
2023-02-13T23:19:33.121Z,100871.84
2023-02-13T23:24:38.169Z,100868.47
2023-02-13T23:29:46.021Z,100870.53
2023-02-13T23:34:50.969Z,100866.03
2023-02-13T23:39:55.892Z,100863.22
2023-02-13T23:45:03.431Z,100853.25
2023-02-13T23:50:12.339Z,100841.00
2023-02-13T23:55:17.220Z,100856.34
